Cropsey, Illinois
Current Conditions -  °F | °C
As of 9:15 PM on Thursday 27 Nov 2014 (Local Time) from KPNT Reporting Station
Clear Clear  
Wind Chill:   Ceiling: Unl
Heat Index: 16°   Visibility: 10mi
Dew Point: 10°   Wind: 7mph
Humidity: 79%   Direction: 290°WNW
Pressure: 30.44"   Gusts: NA
Location:  40.61°N, 88.48°W
Report Text: KPNT 280315Z AUTO 29006KT 10SM CLR M09/M12 A3044 RMK AO2 T10911122
Loading
Personal Weather Stations






























Interactive Weather Map New forecast layout! Learn more

10-Day Weather Forecast

Advertisements
Track Severe Weather on mobile